Time;durP1;ratioP1;P1;durP2;ratioP2;P2;SDS_P1;SDS_P2;PMS_P1;PMS_P2;Temp;Humidity;BMP_temperature;BMP_pressure;BME280_temperature;BME280_humidity;BME280_pressure;Samples;Min_cycle;Max_cycle;Signal;HPM_P1;HPM_P2
2022/10/17 00:01:15;;;;;;;4.68;3.15;;;15.10;92.60;;;;;;4899544;29;20039;-72
2022/10/17 00:03:40;;;;;;;5.00;2.95;;;15.10;92.60;;;;;;4895672;29;20400;-72
2022/10/17 00:06:09;;;;;;;4.63;2.67;;;15.10;92.50;;;;;;4894699;29;20479;-72
2022/10/17 00:08:36;;;;;;;5.25;3.10;;;15.10;92.60;;;;;;4897009;29;20071;-72
2022/10/17 00:11:05;;;;;;;4.18;2.88;;;15.10;92.60;;;;;;4894641;29;20454;-72
2022/10/17 00:13:31;;;;;;;4.13;2.72;;;15.10;92.50;;;;;;4906146;29;20516;-72
2022/10/17 00:15:57;;;;;;;4.35;2.63;;;15.10;92.60;;;;;;4898280;29;20068;-72
2022/10/17 00:18:24;;;;;;;5.57;2.50;;;15.10;92.90;;;;;;4899973;29;20120;-72
2022/10/17 00:20:50;;;;;;;3.45;2.55;;;15.10;93.00;;;;;;4892147;29;20553;-73
2022/10/17 00:23:16;;;;;;;4.78;3.00;;;15.10;93.10;;;;;;4899087;29;20074;-72
2022/10/17 00:25:42;;;;;;;4.97;2.97;;;15.20;92.90;;;;;;4894458;29;20160;-72
2022/10/17 00:28:09;;;;;;;6.30;3.25;;;15.20;92.90;;;;;;4906278;29;20147;-72
2022/10/17 00:30:36;;;;;;;4.45;3.08;;;15.20;92.90;;;;;;4899035;29;20083;-72
2022/10/17 00:33:01;;;;;;;4.88;2.92;;;15.20;92.80;;;;;;4908991;29;20125;-72
2022/10/17 00:35:27;;;;;;;5.53;3.28;;;15.20;92.60;;;;;;4917612;29;20136;-73
2022/10/17 00:37:53;;;;;;;7.78;3.25;;;15.20;92.70;;;;;;4897319;29;20032;-72
2022/10/17 00:40:19;;;;;;;7.22;3.13;;;15.20;92.70;;;;;;4899315;29;20028;-73
2022/10/17 00:42:46;;;;;;;5.72;2.83;;;15.20;92.60;;;;;;4904593;29;20401;-72
2022/10/17 00:45:22;;;;;;;4.18;2.88;;;15.20;92.60;;;;;;4896559;29;20144;-72
2022/10/17 00:47:53;;;;;;;5.78;2.85;;;15.20;92.70;;;;;;4902727;29;20813;-72
2022/10/17 00:50:19;;;;;;;3.03;2.30;;;15.20;92.90;;;;;;4898070;29;20042;-72
2022/10/17 00:52:46;;;;;;;3.83;2.63;;;15.20;93.10;;;;;;4899417;29;20072;-72
2022/10/17 00:55:18;;;;;;;4.78;2.38;;;15.10;93.40;;;;;;4917076;29;20060;-73
2022/10/17 00:57:45;;;;;;;2.70;2.33;;;15.10;93.60;;;;;;4905658;29;20139;-72
2022/10/17 01:00:14;;;;;;;3.08;2.63;;;15.10;93.70;;;;;;4896362;29;20484;-72
2022/10/17 01:02:41;;;;;;;3.97;2.60;;;15.10;93.70;;;;;;4905360;29;20032;-72
2022/10/17 01:05:07;;;;;;;3.78;2.20;;;15.10;93.80;;;;;;4893396;29;20119;-72
2022/10/17 01:07:34;;;;;;;3.60;2.40;;;15.00;93.80;;;;;;4897562;29;20040;-72
2022/10/17 01:10:00;;;;;;;2.78;2.30;;;15.00;94.10;;;;;;4905677;29;20036;-73
2022/10/17 01:12:46;;;;;;;3.05;2.33;;;15.00;94.20;;;;;;4904960;29;20032;-72
2022/10/17 01:15:58;;;;;;;3.22;2.55;;;14.90;94.40;;;;;;4897910;29;20047;-72
2022/10/17 01:18:45;;;;;;;3.33;2.10;;;14.90;94.40;;;;;;4907535;29;20032;-72
2022/10/17 01:21:26;;;;;;;2.83;2.35;;;14.90;94.60;;;;;;4893747;29;20032;-72
2022/10/17 01:24:10;;;;;;;2.58;2.30;;;14.90;94.70;;;;;;4902112;29;20024;-72
2022/10/17 01:27:06;;;;;;;4.80;2.60;;;14.80;94.70;;;;;;4904802;29;20158;-72
2022/10/17 01:29:54;;;;;;;3.60;2.28;;;14.80;94.70;;;;;;4903811;29;20032;-72
2022/10/17 01:32:29;;;;;;;4.32;2.38;;;14.80;94.70;;;;;;4903301;29;20370;-72
2022/10/17 01:35:19;;;;;;;3.47;2.65;;;14.80;94.90;;;;;;4898302;29;20047;-72
2022/10/17 01:38:11;;;;;;;2.72;2.42;;;14.70;95.10;;;;;;4911014;29;20040;-72
2022/10/17 01:40:54;;;;;;;3.38;2.63;;;14.70;95.20;;;;;;4886761;29;20829;-73
2022/10/17 01:43:32;;;;;;;2.90;2.60;;;14.70;95.40;;;;;;4913033;29;20080;-72
2022/10/17 01:46:05;;;;;;;3.72;2.70;;;14.70;95.40;;;;;;4907284;29;20043;-73
2022/10/17 01:48:36;;;;;;;3.35;2.90;;;14.70;95.40;;;;;;4895848;29;20060;-73
2022/10/17 01:51:10;;;;;;;3.25;2.88;;;14.60;95.30;;;;;;4897728;29;20044;-72
2022/10/17 01:53:41;;;;;;;4.07;3.30;;;14.60;95.60;;;;;;4907766;29;20037;-72
2022/10/17 01:56:11;;;;;;;6.55;3.33;;;14.60;95.80;;;;;;4894141;29;20036;-72
2022/10/17 01:58:43;;;;;;;4.63;3.20;;;14.60;95.80;;;;;;4910440;29;20059;-72
2022/10/17 02:01:11;;;;;;;3.03;2.72;;;14.60;95.80;;;;;;4904260;29;20040;-72
2022/10/17 02:03:40;;;;;;;3.33;3.03;;;14.60;96.00;;;;;;4907798;29;20082;-72
2022/10/17 02:06:06;;;;;;;3.95;3.00;;;14.60;96.10;;;;;;4904185;29;20032;-72
2022/10/17 02:08:45;;;;;;;4.57;3.22;;;14.50;96.30;;;;;;4902452;29;20067;-73
2022/10/17 02:11:18;;;;;;;4.50;2.92;;;14.50;96.30;;;;;;4895112;29;20179;-72
2022/10/17 02:14:00;;;;;;;4.72;3.53;;;14.50;96.30;;;;;;4901195;29;20040;-72
2022/10/17 02:16:44;;;;;;;3.88;3.17;;;14.60;96.30;;;;;;4911463;29;20040;-73
2022/10/17 02:19:25;;;;;;;4.50;3.22;;;14.60;96.40;;;;;;4908276;29;20071;-72
2022/10/17 02:22:12;;;;;;;3.25;2.95;;;14.60;96.40;;;;;;4896096;29;20083;-76
2022/10/17 02:24:56;;;;;;;3.17;2.80;;;14.60;96.30;;;;;;4900115;29;20044;-72
2022/10/17 02:27:44;;;;;;;4.03;3.05;;;14.60;96.30;;;;;;4897754;29;20032;-72
2022/10/17 02:30:32;;;;;;;5.07;3.28;;;14.60;96.20;;;;;;4901034;29;20039;-72
2022/10/17 02:33:05;;;;;;;4.30;3.30;;;14.60;96.20;;;;;;4893432;29;20040;-73
2022/10/17 02:35:37;;;;;;;4.07;3.67;;;14.60;96.30;;;;;;4909011;29;20086;-73
2022/10/17 02:38:05;;;;;;;4.97;2.95;;;14.60;96.30;;;;;;4906618;29;20040;-73
2022/10/17 02:40:31;;;;;;;6.50;3.50;;;14.60;96.30;;;;;;4899928;29;20810;-73
2022/10/17 02:42:59;;;;;;;7.07;3.75;;;14.60;96.30;;;;;;4903989;29;20068;-72
2022/10/17 02:45:28;;;;;;;7.65;3.47;;;14.60;96.50;;;;;;4903287;29;20044;-72
2022/10/17 02:48:21;;;;;;;5.47;3.35;;;14.60;96.60;;;;;;4903346;29;20066;-76
2022/10/17 02:51:06;;;;;;;4.55;3.65;;;14.60;96.70;;;;;;4909650;29;20065;-76
2022/10/17 02:54:06;;;;;;;4.53;2.75;;;14.70;96.80;;;;;;4904624;29;20425;-77
2022/10/17 02:56:45;;;;;;;3.30;3.00;;;14.70;96.80;;;;;;4908844;29;20044;-76
2022/10/17 02:59:14;;;;;;;3.42;2.65;;;14.70;96.80;;;;;;4901429;29;20123;-76
2022/10/17 03:01:41;;;;;;;6.00;3.88;;;14.70;96.90;;;;;;4892522;29;20104;-77
2022/10/17 03:04:13;;;;;;;4.05;3.10;;;14.80;97.00;;;;;;4903526;29;20039;-77
2022/10/17 03:06:41;;;;;;;3.83;3.42;;;14.80;97.10;;;;;;4897525;29;20039;-76
2022/10/17 03:09:07;;;;;;;4.25;3.67;;;14.90;97.20;;;;;;4894327;29;20037;-76
2022/10/17 03:11:33;;;;;;;4.93;3.58;;;14.90;97.30;;;;;;4909710;29;20075;-77
2022/10/17 03:13:59;;;;;;;3.45;3.08;;;15.00;97.30;;;;;;4907429;29;20461;-76
2022/10/17 03:16:26;;;;;;;4.25;3.60;;;15.00;97.20;;;;;;4902810;29;20032;-77
2022/10/17 03:18:51;;;;;;;4.10;3.70;;;15.00;97.10;;;;;;4910958;29;20444;-76
2022/10/17 03:21:17;;;;;;;3.70;3.40;;;15.10;97.20;;;;;;4904653;29;20765;-76
2022/10/17 03:23:43;;;;;;;3.80;3.20;;;15.10;97.10;;;;;;4902169;29;20525;-77
2022/10/17 03:26:09;;;;;;;3.70;3.40;;;15.10;97.00;;;;;;4914551;29;20698;-76
2022/10/17 03:28:35;;;;;;;5.85;3.92;;;15.10;97.00;;;;;;4910760;29;20524;-77
2022/10/17 03:31:14;;;;;;;4.40;3.00;;;15.10;97.00;;;;;;4901513;29;20032;-76
2022/10/17 03:33:41;;;;;;;6.32;3.08;;;15.20;97.10;;;;;;4907856;29;20458;-76
2022/10/17 03:36:13;;;;;;;6.07;3.60;;;15.10;97.00;;;;;;4906146;29;20043;-76
2022/10/17 03:38:40;;;;;;;6.82;2.97;;;15.10;97.10;;;;;;4907762;29;20168;-76
2022/10/17 03:41:06;;;;;;;3.63;2.90;;;15.10;97.20;;;;;;4908279;29;20112;-76
2022/10/17 03:43:32;;;;;;;4.88;2.83;;;15.10;97.20;;;;;;4902387;29;20123;-76
2022/10/17 03:45:59;;;;;;;4.35;3.22;;;15.20;97.30;;;;;;4910088;29;20084;-76
2022/10/17 03:48:26;;;;;;;4.55;3.13;;;15.20;97.20;;;;;;4893907;29;20033;-77
2022/10/17 03:51:04;;;;;;;3.00;2.67;;;15.20;97.20;;;;;;4906377;29;20036;-77
2022/10/17 03:53:33;;;;;;;3.95;2.67;;;15.30;97.20;;;;;;4902089;29;20036;-76
2022/10/17 03:56:18;;;;;;;2.83;2.63;;;15.30;97.10;;;;;;4891291;29;20039;-76
2022/10/17 03:58:51;;;;;;;3.67;2.42;;;15.30;97.10;;;;;;4901684;29;20024;-77
2022/10/17 04:01:17;;;;;;;5.60;2.58;;;15.40;97.00;;;;;;4901510;29;20036;-77
2022/10/17 04:03:49;;;;;;;3.22;2.92;;;15.40;97.00;;;;;;4912209;29;20039;-76
2022/10/17 04:06:15;;;;;;;2.53;2.33;;;15.40;96.90;;;;;;4901466;29;20367;-76
2022/10/17 04:08:42;;;;;;;3.30;2.72;;;15.40;96.90;;;;;;4893186;29;20032;-77
2022/10/17 04:11:20;;;;;;;3.33;2.45;;;15.40;96.90;;;;;;4901115;29;20047;-76
2022/10/17 04:13:51;;;;;;;3.10;2.80;;;15.40;96.80;;;;;;4899133;29;20039;-76
2022/10/17 04:16:17;;;;;;;3.35;2.70;;;15.30;96.80;;;;;;4896330;29;20032;-76
2022/10/17 04:19:11;;;;;;;2.50;2.30;;;15.30;96.90;;;;;;4890187;29;20397;-76
2022/10/17 04:21:40;;;;;;;4.85;2.88;;;15.20;96.80;;;;;;4912090;29;20035;-76
2022/10/17 04:24:09;;;;;;;3.00;2.60;;;15.20;96.80;;;;;;4901836;29;20694;-76
2022/10/17 04:27:07;;;;;;;2.95;2.67;;;15.20;96.90;;;;;;4888514;29;20041;-75
2022/10/17 04:29:37;;;;;;;4.03;2.88;;;15.20;96.80;;;;;;4910322;29;20028;-76
2022/10/17 04:32:08;;;;;;;2.63;2.42;;;15.10;96.90;;;;;;4910366;29;20037;-76
2022/10/17 04:34:49;;;;;;;3.00;2.60;;;15.10;96.90;;;;;;4905595;29;20794;-75
2022/10/17 04:37:15;;;;;;;3.25;2.63;;;15.10;97.00;;;;;;4905446;29;20095;-76
2022/10/17 04:39:42;;;;;;;2.88;2.65;;;15.10;97.00;;;;;;4907088;29;20028;-76
2022/10/17 04:42:08;;;;;;;4.15;3.05;;;15.00;97.30;;;;;;4901233;29;20037;-76
2022/10/17 04:44:34;;;;;;;7.45;3.20;;;15.00;97.00;;;;;;4903780;29;20033;-76
2022/10/17 04:47:01;;;;;;;3.25;2.85;;;15.00;97.10;;;;;;4913966;29;20063;-72
2022/10/17 04:49:26;;;;;;;4.28;3.45;;;15.00;97.40;;;;;;4898173;29;20033;-73
2022/10/17 04:51:57;;;;;;;3.88;3.47;;;15.00;97.10;;;;;;4919458;29;20488;-72
2022/10/17 04:54:28;;;;;;;4.55;2.75;;;14.90;97.10;;;;;;4899968;29;20841;-72
2022/10/17 04:57:01;;;;;;;3.30;2.95;;;14.90;97.10;;;;;;4909247;29;20036;-72
2022/10/17 04:59:28;;;;;;;3.45;3.15;;;14.90;97.30;;;;;;4907130;29;20024;-73
2022/10/17 05:02:04;;;;;;;4.07;2.95;;;14.90;97.50;;;;;;4922751;29;20067;-72
2022/10/17 05:04:32;;;;;;;3.30;3.00;;;14.80;97.60;;;;;;4907785;29;20031;-72
2022/10/17 05:06:58;;;;;;;3.67;3.00;;;14.90;97.80;;;;;;4906903;29;20043;-73
2022/10/17 05:09:43;;;;;;;3.20;2.60;;;14.90;97.80;;;;;;4899144;29;20048;-72
2022/10/17 05:12:09;;;;;;;3.38;3.08;;;14.90;97.90;;;;;;4908449;29;20124;-73
2022/10/17 05:14:37;;;;;;;4.05;3.60;;;14.90;98.00;;;;;;4913923;29;20051;-72
2022/10/17 05:17:03;;;;;;;3.67;3.13;;;15.00;98.00;;;;;;4904215;29;20032;-72
2022/10/17 05:19:29;;;;;;;4.57;3.42;;;14.90;98.20;;;;;;4902574;29;20043;-73
2022/10/17 05:21:54;;;;;;;4.15;3.55;;;14.90;98.30;;;;;;4921461;29;20051;-72
2022/10/17 05:24:20;;;;;;;4.43;3.25;;;15.00;98.40;;;;;;4900290;29;20084;-73
2022/10/17 05:26:49;;;;;;;4.22;3.47;;;15.00;98.70;;;;;;4907210;29;20029;-72
2022/10/17 05:29:16;;;;;;;5.47;3.30;;;15.10;99.00;;;;;;4899346;29;20032;-73
2022/10/17 05:31:46;;;;;;;4.30;3.42;;;15.10;99.00;;;;;;4896518;29;20036;-73
2022/10/17 05:34:12;;;;;;;4.60;3.42;;;15.20;98.90;;;;;;4905409;29;20036;-73
2022/10/17 05:36:38;;;;;;;4.47;3.60;;;15.20;99.10;;;;;;4906177;29;20043;-73
2022/10/17 05:39:04;;;;;;;3.30;3.00;;;15.30;99.00;;;;;;4900276;29;20033;-73
2022/10/17 05:41:32;;;;;;;4.10;3.10;;;15.40;99.10;;;;;;4895136;29;20545;-73
2022/10/17 05:43:58;;;;;;;5.32;3.83;;;15.40;99.10;;;;;;4918229;29;20028;-73
2022/10/17 05:46:36;;;;;;;5.30;3.60;;;15.50;99.40;;;;;;4904535;29;20032;-72
2022/10/17 05:49:02;;;;;;;3.78;3.40;;;15.50;99.20;;;;;;4893672;29;20040;-73
2022/10/17 05:51:28;;;;;;;3.40;2.95;;;15.50;99.00;;;;;;4899246;29;20512;-72
2022/10/17 05:53:55;;;;;;;5.82;3.20;;;15.50;99.10;;;;;;4908227;29;20032;-73
2022/10/17 05:56:25;;;;;;;4.00;3.22;;;15.60;99.00;;;;;;4902328;29;20028;-73
2022/10/17 05:58:52;;;;;;;3.50;3.20;;;15.60;98.90;;;;;;4902492;29;20540;-73
2022/10/17 06:01:35;;;;;;;4.55;3.08;;;15.60;98.80;;;;;;4910630;29;20400;-76
2022/10/17 06:04:01;;;;;;;4.88;3.05;;;15.60;98.70;;;;;;4900032;29;20040;-76
2022/10/17 06:06:26;;;;;;;3.10;2.80;;;15.70;98.70;;;;;;4907319;29;20033;-76
2022/10/17 06:08:52;;;;;;;3.88;3.30;;;15.70;98.60;;;;;;4914078;28;20032;-76
2022/10/17 06:11:24;;;;;;;6.32;3.15;;;15.70;98.40;;;;;;4898772;29;20515;-77
2022/10/17 06:13:50;;;;;;;3.88;2.88;;;15.70;98.30;;;;;;4916129;29;20037;-76
2022/10/17 06:16:21;;;;;;;3.75;3.10;;;15.80;98.40;;;;;;4908394;29;20706;-75
2022/10/17 06:18:47;;;;;;;4.03;2.88;;;15.80;98.30;;;;;;4905833;29;20123;-77
2022/10/17 06:21:17;;;;;;;6.55;3.13;;;15.90;98.20;;;;;;4916272;29;20147;-76
2022/10/17 06:23:45;;;;;;;4.38;3.00;;;15.90;98.10;;;;;;4903499;29;20039;-77
2022/10/17 06:26:33;;;;;;;5.10;3.03;;;16.00;97.90;;;;;;4902024;29;20032;-76
2022/10/17 06:28:59;;;;;;;4.40;3.28;;;16.00;98.00;;;;;;4893708;29;20071;-78
2022/10/17 06:31:29;;;;;;;2.88;2.50;;;16.00;97.90;;;;;;4901433;29;20036;-77
2022/10/17 06:33:55;;;;;;;3.45;2.95;;;16.10;97.80;;;;;;4902456;29;20746;-77
2022/10/17 06:36:21;;;;;;;9.13;2.95;;;16.10;97.70;;;;;;4904789;29;20043;-76
2022/10/17 06:38:49;;;;;;;6.28;3.17;;;16.10;97.60;;;;;;4910632;29;20052;-73
2022/10/17 06:41:21;;;;;;;6.55;2.95;;;16.10;97.50;;;;;;4904338;29;20035;-73
2022/10/17 06:43:50;;;;;;;6.63;3.00;;;16.20;97.40;;;;;;4894328;29;20170;-72
2022/10/17 06:46:28;;;;;;;2.97;2.42;;;16.20;97.20;;;;;;4889734;29;20047;-72
2022/10/17 06:48:57;;;;;;;5.55;2.80;;;16.20;97.20;;;;;;4898342;29;20040;-70
2022/10/17 06:51:55;;;;;;;4.00;2.95;;;16.20;97.40;;;;;;4903803;29;20579;-70
2022/10/17 06:54:29;;;;;;;5.20;2.55;;;16.30;97.10;;;;;;4915222;29;20043;-72
2022/10/17 06:57:22;;;;;;;2.72;2.40;;;16.40;97.00;;;;;;4923489;29;20836;-73
2022/10/17 07:00:01;;;;;;;4.53;2.70;;;16.50;96.80;;;;;;4915888;29;20055;-74
2022/10/17 07:02:33;;;;;;;4.88;2.40;;;16.50;96.70;;;;;;4921713;29;20107;-74
2022/10/17 07:05:00;;;;;;;2.75;2.45;;;16.60;96.60;;;;;;4916713;29;20038;-74
2022/10/17 07:07:31;;;;;;;4.90;2.63;;;16.60;96.30;;;;;;4931568;28;20408;-73
2022/10/17 07:09:57;;;;;;;2.92;2.50;;;16.70;96.20;;;;;;4921520;28;20115;-74
2022/10/17 07:12:24;;;;;;;3.70;2.55;;;16.70;96.10;;;;;;4923785;29;20071;-74
2022/10/17 07:14:50;;;;;;;3.97;2.35;;;16.80;96.10;;;;;;4926299;29;20047;-74
2022/10/17 07:17:17;;;;;;;3.83;2.63;;;16.80;96.00;;;;;;4915948;29;20028;-74
2022/10/17 07:19:43;;;;;;;3.13;2.50;;;16.80;95.80;;;;;;4932140;28;20131;-74
2022/10/17 07:22:10;;;;;;;7.88;1.95;;;16.90;95.90;;;;;;4938502;28;20035;-74
2022/10/17 07:24:38;;;;;;;4.75;2.78;;;16.90;95.80;;;;;;4938424;28;20067;-73
2022/10/17 07:27:13;;;;;;;3.85;2.60;;;17.00;95.80;;;;;;4923329;29;20043;-71
2022/10/17 07:29:39;;;;;;;4.00;2.38;;;17.00;95.80;;;;;;4924852;28;20032;-73
2022/10/17 07:32:29;;;;;;;4.97;2.25;;;17.10;95.50;;;;;;4915086;29;20023;-72
2022/10/17 07:34:55;;;;;;;4.85;2.35;;;17.10;95.40;;;;;;4929723;28;20087;-72
2022/10/17 07:37:20;;;;;;;5.63;2.50;;;17.20;95.30;;;;;;4920517;29;20032;-71
2022/10/17 07:39:52;;;;;;;2.97;2.38;;;17.20;95.20;;;;;;4925262;29;20146;-73
2022/10/17 07:42:17;;;;;;;4.38;2.17;;;17.30;95.10;;;;;;4919877;29;20817;-74
2022/10/17 07:44:46;;;;;;;4.78;2.15;;;17.40;95.00;;;;;;4923759;29;20028;-73
2022/10/17 07:47:12;;;;;;;4.43;2.20;;;17.40;94.90;;;;;;4932811;28;20040;-74
2022/10/17 07:49:41;;;;;;;2.95;2.25;;;17.50;94.70;;;;;;4921068;29;20475;-73
2022/10/17 07:52:12;;;;;;;2.75;2.20;;;17.50;94.60;;;;;;4914775;29;20040;-73
2022/10/17 07:54:38;;;;;;;4.18;2.30;;;17.60;94.60;;;;;;4921166;29;20063;-73
2022/10/17 07:57:04;;;;;;;3.45;2.40;;;17.70;94.60;;;;;;4912760;29;20060;-71
2022/10/17 07:59:32;;;;;;;4.47;2.22;;;17.80;94.40;;;;;;4910795;29;20036;-73
2022/10/17 08:01:58;;;;;;;6.57;2.00;;;18.00;94.00;;;;;;4917096;29;20038;-73
2022/10/17 08:04:24;;;;;;;2.95;2.38;;;18.10;93.90;;;;;;4908429;29;20040;-73
2022/10/17 08:06:50;;;;;;;4.22;2.10;;;18.10;93.80;;;;;;4917304;29;20507;-73
2022/10/17 08:09:16;;;;;;;4.15;2.20;;;18.20;93.80;;;;;;4923754;29;20126;-73
2022/10/17 08:11:45;;;;;;;5.80;2.33;;;18.30;93.60;;;;;;4920768;29;20781;-73
2022/10/17 08:14:12;;;;;;;4.97;2.20;;;18.50;93.30;;;;;;4918975;29;20227;-73
2022/10/17 08:16:41;;;;;;;3.25;1.73;;;18.60;92.90;;;;;;4924081;28;20036;-75
2022/10/17 08:19:07;;;;;;;5.10;2.28;;;18.70;92.80;;;;;;4914614;29;20032;-75
2022/10/17 08:21:34;;;;;;;5.05;2.38;;;18.70;92.80;;;;;;4924339;29;20090;-73
2022/10/17 08:24:01;;;;;;;2.97;1.70;;;18.80;92.40;;;;;;4920741;29;20072;-73
2022/10/17 08:26:27;;;;;;;4.10;1.90;;;18.90;92.20;;;;;;4923889;29;20130;-73
2022/10/17 08:28:53;;;;;;;4.18;1.90;;;19.00;92.10;;;;;;4912892;29;20039;-73
2022/10/17 08:31:20;;;;;;;5.95;2.33;;;19.00;91.90;;;;;;4922384;29;20028;-70
2022/10/17 08:33:47;;;;;;;2.80;2.22;;;19.10;92.00;;;;;;4921120;29;20039;-73
2022/10/17 08:36:15;;;;;;;4.68;2.00;;;19.20;92.10;;;;;;4926331;29;20560;-72
2022/10/17 08:38:42;;;;;;;3.28;2.10;;;19.30;92.30;;;;;;4918858;29;20028;-72
2022/10/17 08:41:41;;;;;;;3.03;1.98;;;19.40;91.60;;;;;;4925017;29;20070;-73
2022/10/17 08:44:18;;;;;;;3.30;1.80;;;19.50;91.40;;;;;;4923675;29;20044;-73
2022/10/17 08:46:48;;;;;;;3.88;1.85;;;19.80;91.00;;;;;;4926933;29;20066;-72
2022/10/17 08:49:39;;;;;;;5.68;2.42;;;19.90;90.80;;;;;;4922169;29;20036;-69
2022/10/17 08:52:17;;;;;;;4.60;2.83;;;20.20;90.00;;;;;;4913199;29;20067;-69
2022/10/17 08:54:45;;;;;;;5.95;1.80;;;20.70;87.70;;;;;;4922646;29;20043;-69
2022/10/17 08:57:14;;;;;;;3.88;1.85;;;21.10;86.00;;;;;;4928167;28;20499;-69
2022/10/17 08:59:41;;;;;;;6.63;3.25;;;21.20;84.60;;;;;;4917680;29;20676;-69
2022/10/17 09:02:18;;;;;;;5.03;3.45;;;21.40;84.00;;;;;;4914301;29;20092;-68
2022/10/17 09:04:57;;;;;;;7.80;4.90;;;21.50;82.80;;;;;;4925897;29;20578;-69
2022/10/17 09:07:32;;;;;;;15.18;6.25;;;21.60;81.80;;;;;;4922130;29;20043;-70
2022/10/17 09:09:58;;;;;;;20.13;12.60;;;21.60;83.10;;;;;;4917115;29;20036;-71
2022/10/17 09:12:48;;;;;;;6.07;3.83;;;21.50;81.10;;;;;;4917558;29;20024;-72
2022/10/17 09:15:17;;;;;;;3.47;2.10;;;21.60;82.30;;;;;;4918036;29;20075;-71
2022/10/17 09:17:48;;;;;;;7.20;5.15;;;21.60;82.40;;;;;;4913338;29;20028;-69
2022/10/17 09:20:19;;;;;;;7.07;3.25;;;21.70;82.00;;;;;;4917087;29;20591;-69
2022/10/17 09:23:10;;;;;;;9.93;4.43;;;21.90;81.50;;;;;;4921970;29;20505;-68
2022/10/17 09:25:51;;;;;;;4.00;2.17;;;22.00;80.80;;;;;;4913724;29;20039;-69
2022/10/17 09:28:30;;;;;;;5.38;3.67;;;22.10;80.60;;;;;;4912402;29;20120;-69
2022/10/17 09:31:05;;;;;;;4.95;3.25;;;22.10;79.40;;;;;;4923009;29;20142;-67
2022/10/17 09:33:42;;;;;;;9.07;6.05;;;22.20;80.00;;;;;;4922835;29;20139;-68
2022/10/17 09:36:17;;;;;;;8.65;2.75;;;22.10;78.50;;;;;;4925446;29;20055;-68
2022/10/17 09:38:58;;;;;;;2.70;2.17;;;22.10;79.70;;;;;;4919595;28;20388;-68
2022/10/17 09:41:33;;;;;;;4.10;2.70;;;22.00;80.20;;;;;;4919940;29;20031;-68
2022/10/17 09:44:18;;;;;;;5.93;2.60;;;22.10;79.80;;;;;;4925619;28;20043;-68
2022/10/17 09:47:19;;;;;;;3.38;2.13;;;22.20;79.60;;;;;;4914445;29;20078;-68
2022/10/17 09:49:47;;;;;;;7.50;3.10;;;22.40;79.70;;;;;;4913837;29;20739;-68
2022/10/17 09:52:26;;;;;;;3.83;2.30;;;22.60;77.90;;;;;;4921669;29;20516;-68
2022/10/17 09:55:05;;;;;;;4.55;2.20;;;22.70;77.60;;;;;;4916831;29;20040;-71
2022/10/17 09:57:50;;;;;;;3.63;2.00;;;22.80;76.70;;;;;;4920926;29;20032;-71
2022/10/17 10:00:22;;;;;;;2.67;1.92;;;23.20;76.20;;;;;;4923683;29;20086;-71
2022/10/17 10:02:48;;;;;;;5.15;3.22;;;23.50;75.90;;;;;;4915472;29;20036;-71
2022/10/17 10:05:16;;;;;;;4.80;2.60;;;23.80;72.90;;;;;;4917944;29;20753;-69
2022/10/17 10:07:57;;;;;;;6.15;1.85;;;24.00;72.50;;;;;;4919741;29;20560;-69
2022/10/17 10:10:26;;;;;;;6.85;4.22;;;24.40;71.20;;;;;;4915054;29;20036;-69
2022/10/17 10:13:24;;;;;;;5.85;4.05;;;24.70;70.20;;;;;;4924460;29;20035;-69
2022/10/17 10:15:50;;;;;;;15.32;6.85;;;24.40;70.70;;;;;;4903058;29;20059;-69
2022/10/17 10:18:25;;;;;;;9.45;5.18;;;24.10;71.30;;;;;;4916063;29;20031;-69
2022/10/17 10:21:15;;;;;;;7.03;4.33;;;24.00;71.50;;;;;;4917725;29;20027;-69
2022/10/17 10:24:02;;;;;;;5.95;3.05;;;24.60;69.50;;;;;;4913543;29;20552;-69
2022/10/17 10:26:55;;;;;;;4.18;3.05;;;25.70;67.70;;;;;;4912660;29;20027;-69
2022/10/17 10:29:35;;;;;;;4.78;2.45;;;26.80;62.60;;;;;;4915312;29;20134;-69
2022/10/17 10:32:26;;;;;;;3.28;2.10;;;27.30;61.80;;;;;;4916850;29;20358;-69
2022/10/17 10:34:56;;;;;;;3.75;2.13;;;27.30;60.90;;;;;;4924139;29;20035;-69
2022/10/17 10:37:24;;;;;;;7.25;2.40;;;27.00;61.80;;;;;;4921455;29;20059;-71
2022/10/17 10:40:02;;;;;;;6.35;3.47;;;27.40;61.00;;;;;;4918512;29;20385;-71
2022/10/17 10:42:32;;;;;;;7.25;2.97;;;27.90;59.40;;;;;;4915829;29;20712;-68
2022/10/17 10:45:02;;;;;;;8.70;3.00;;;28.20;58.00;;;;;;4927367;29;20038;-67
2022/10/17 10:47:30;;;;;;;3.72;2.33;;;28.40;56.90;;;;;;4917478;29;20039;-77
2022/10/17 10:50:21;;;;;;;3.30;2.65;;;28.40;56.10;;;;;;4919132;29;20027;-77
2022/10/17 10:52:57;;;;;;;4.00;2.47;;;28.10;57.20;;;;;;4920428;29;20063;-77
2022/10/17 10:55:28;;;;;;;6.95;2.72;;;28.20;56.20;;;;;;4916331;29;20046;-78
2022/10/17 10:57:58;;;;;;;5.35;2.10;;;28.30;55.20;;;;;;4918928;29;20059;-74
2022/10/17 11:00:27;;;;;;;4.97;1.95;;;27.70;57.00;;;;;;4921770;29;20035;-73
2022/10/17 11:02:56;;;;;;;2.08;1.50;;;26.60;60.60;;;;;;4913698;29;20035;-74
2022/10/17 11:05:42;;;;;;;5.57;2.28;;;25.80;62.80;;;;;;4919369;29;20072;-74
2022/10/17 11:08:42;;;;;;;12.45;2.58;;;25.30;63.90;;;;;;4906070;29;20051;-74
2022/10/17 11:11:25;;;;;;;6.28;2.78;;;24.70;65.40;;;;;;4919532;29;20043;-74
2022/10/17 11:14:00;;;;;;;6.90;2.13;;;24.40;67.60;;;;;;4914934;29;20473;-74
2022/10/17 11:17:12;;;;;;;4.75;2.15;;;24.10;68.30;;;;;;4915332;29;20046;-73
2022/10/17 11:19:45;;;;;;;5.50;1.90;;;24.00;69.10;;;;;;4874372;29;20077;-75
2022/10/17 11:22:20;;;;;;;3.65;2.00;;;24.00;69.40;;;;;;4915396;29;20484;-74
2022/10/17 11:24:55;;;;;;;5.00;1.92;;;24.00;69.20;;;;;;4917605;28;20043;-77
2022/10/17 11:27:23;;;;;;;2.80;1.85;;;23.90;70.00;;;;;;4918249;29;20050;-76
2022/10/17 11:29:49;;;;;;;7.13;2.13;;;24.00;69.90;;;;;;4913342;29;20039;-74
2022/10/17 11:32:33;;;;;;;5.20;2.28;;;24.00;70.00;;;;;;4919155;29;20044;-78
2022/10/17 11:35:27;;;;;;;3.50;2.10;;;24.00;69.70;;;;;;4911429;29;20047;-77
2022/10/17 11:38:35;;;;;;;5.45;1.92;;;24.10;70.10;;;;;;4912162;29;20048;-75
2022/10/17 11:41:01;;;;;;;3.80;1.83;;;24.00;68.60;;;;;;4918022;29;20127;-78
2022/10/17 11:43:30;;;;;;;2.97;2.22;;;24.00;69.30;;;;;;4917314;29;20028;-72
2022/10/17 11:46:01;;;;;;;2.80;1.85;;;24.10;69.90;;;;;;4913645;29;20032;-77
2022/10/17 11:48:36;;;;;;;6.00;2.05;;;24.20;69.30;;;;;;4922969;29;20062;-77
2022/10/17 11:51:12;;;;;;;5.93;2.20;;;24.30;68.60;;;;;;4918396;29;20559;-77
2022/10/17 11:54:05;;;;;;;4.35;1.92;;;24.30;68.60;;;;;;4929427;29;20040;-77
2022/10/17 11:56:40;;;;;;;5.45;2.00;;;24.20;69.10;;;;;;4914682;29;20036;-76
2022/10/17 11:59:21;;;;;;;12.27;2.35;;;24.20;69.70;;;;;;4914936;29;20484;-77
2022/10/17 12:01:53;;;;;;;6.43;2.47;;;24.10;69.60;;;;;;4929668;29;20043;-77
2022/10/17 12:04:19;;;;;;;6.88;2.80;;;24.30;68.40;;;;;;4914711;29;20028;-75
2022/10/17 12:07:25;;;;;;;5.03;2.00;;;24.20;69.30;;;;;;4913234;29;20027;-75
2022/10/17 12:10:03;;;;;;;4.63;2.10;;;24.30;69.90;;;;;;4909931;29;20065;-75
2022/10/17 12:12:34;;;;;;;5.93;2.22;;;24.40;69.30;;;;;;4922814;29;20054;-74
2022/10/17 12:15:12;;;;;;;5.47;1.98;;;24.40;69.10;;;;;;4917268;29;20046;-74
2022/10/17 12:18:05;;;;;;;6.82;1.90;;;24.40;69.80;;;;;;4921184;29;20027;-75
2022/10/17 12:20:33;;;;;;;6.38;2.72;;;24.40;69.30;;;;;;4914106;29;20292;-75
2022/10/17 12:23:02;;;;;;;8.10;2.22;;;24.40;69.70;;;;;;4926063;29;20366;-75
2022/10/17 12:25:32;;;;;;;2.42;1.90;;;24.30;69.20;;;;;;4916078;29;20035;-75
2022/10/17 12:28:25;;;;;;;2.50;1.80;;;24.30;70.20;;;;;;4926447;29;20092;-75
2022/10/17 12:31:14;;;;;;;4.13;1.90;;;24.30;69.10;;;;;;4920996;29;20036;-75
2022/10/17 12:33:54;;;;;;;7.03;2.05;;;24.20;70.20;;;;;;4911441;29;20051;-75
2022/10/17 12:36:29;;;;;;;7.10;1.83;;;24.20;70.60;;;;;;4916122;29;20036;-75
2022/10/17 12:39:00;;;;;;;4.20;1.80;;;24.30;70.60;;;;;;4916811;29;20119;-74
2022/10/17 12:41:38;;;;;;;3.28;1.90;;;24.40;70.40;;;;;;4922103;29;20032;-75
2022/10/17 12:44:13;;;;;;;6.65;2.00;;;24.40;70.40;;;;;;4915693;29;20043;-74
2022/10/17 12:46:46;;;;;;;3.97;1.85;;;24.50;69.50;;;;;;4915961;29;20107;-75
2022/10/17 12:49:22;;;;;;;5.00;1.98;;;24.60;70.20;;;;;;4922567;29;20118;-76
2022/10/17 12:52:19;;;;;;;4.57;1.80;;;24.60;69.20;;;;;;4916593;29;20035;-75
2022/10/17 12:54:53;;;;;;;4.15;1.90;;;24.50;68.80;;;;;;4919559;29;20180;-75
2022/10/17 12:57:54;;;;;;;4.97;1.83;;;24.50;69.60;;;;;;4918320;29;20047;-75
2022/10/17 13:00:45;;;;;;;2.20;1.40;;;24.50;70.40;;;;;;4921994;29;20047;-75
2022/10/17 13:03:25;;;;;;;3.42;1.80;;;24.50;69.10;;;;;;4911424;29;20042;-75
2022/10/17 13:06:00;;;;;;;3.78;1.98;;;24.50;69.70;;;;;;4914239;29;20046;-75
2022/10/17 13:08:41;;;;;;;5.00;2.37;;;24.50;69.40;;;;;;4918619;29;20765;-75
2022/10/17 13:11:07;;;;;;;2.28;1.80;;;24.50;68.80;;;;;;4917098;29;20040;-75
2022/10/17 13:13:47;;;;;;;3.78;1.95;;;24.50;69.60;;;;;;4912136;29;20063;-78
2022/10/17 13:16:34;;;;;;;5.78;1.83;;;24.60;69.30;;;;;;4917234;29;20040;-77
2022/10/17 13:19:02;;;;;;;1.80;1.60;;;24.70;70.00;;;;;;4909343;29;20040;-78